Latest Weather Observations for Archerfield

IDQ60801

Issued at 8:32 pm EST Saturday 21 January 2017 (issued every 30 minutes, with the page automatically refreshed every 10 minutes)

About weather observations | Map of weather stations | Latest weather observations for QLD | Other Formats
Station Details ID: 040211 Name: ARCHERFIELD AIRPORT Lat: -27.57 Lon: 153.01 Height: 12.5 m
Data from the previous 72 hours. | See also: Recent months at Archerfield
Date/Time
EST
Temp
°C
App
Temp
°C
Dew
Point
°C
Rel
Hum
%
Delta-T
°C
Wind Press
QNH
hPa
Press
MSL
hPa
Rain since
9am
mm
Dir  Spd
km/h
Gust
km/h
Spd
kts
Gust
kts
21/08:30pm 23.5 23.6 20.4 83 2.0 SE 20 30 11 16 1013.1 1013.0 0.8
21/08:00pm 23.8 22.4 20.5 82 2.1 ESE 28 37 15 20 1012.8 1012.7 0.8
21/07:30pm 23.9 24.7 20.6 82 2.2 SE 17 24 9 13 1012.0 1011.9 0.8
21/07:00pm 24.3 24.6 20.8 81 2.3 ESE 20 28 11 15 1011.6 1011.5 0.8
21/06:30pm 24.4 25.0 21.1 82 2.2 ESE 19 22 10 12 1011.1 1011.0 0.8
21/06:00pm 24.4 25.3 21.5 84 1.9 ESE 19 28 10 15 1010.4 1010.3 0.8
21/05:30pm 24.1 25.1 21.8 87 1.5 ESE 19 28 10 15 1009.9 1009.8 0.8
21/05:00pm 23.7 23.7 21.6 88 1.4 ESE 24 35 13 19 1009.0 1008.9 0.8
21/04:30pm 25.1 24.9 21.2 79 2.6 ESE 24 35 13 19 1008.7 1008.6 0.0
21/04:00pm 25.4 25.3 21.5 79 2.6 ESE 24 33 13 18 1008.5 1008.4 0.0
21/03:30pm 25.4 24.1 21.3 78 2.7 ESE 30 43 16 23 1007.9 1007.8 0.0
21/03:00pm 25.7 24.5 21.6 78 2.7 ESE 30 44 16 24 1008.0 1007.9 0.0
21/02:30pm 25.3 24.5 21.6 80 2.5 SE 28 44 15 24 1008.2 1008.1 0.0
21/02:00pm 25.9 25.9 21.6 77 2.9 SE 24 43 13 23 1008.2 1008.1 0.0
21/01:48pm 26.5 24.8 21.3 73 3.4 SE 32 48 17 26 1007.8 1007.7 0.0
21/01:38pm 26.9 24.2 21.2 71 3.8 ESE 37 56 20 30 1007.5 1007.4 0.0
21/01:30pm 27.3 23.5 21.3 69 4.0 ESE 43 52 23 28 1007.3 1007.2 0.0
21/01:00pm 30.5 29.1 22.9 64 5.2 ESE 35 48 19 26 1006.7 1006.6 0.0
21/12:30pm 29.9 29.3 23.3 67 4.5 ESE 32 43 17 23 1006.6 1006.5 0.0
21/12:00pm 29.1 28.2 23.1 70 4.1 ESE 33 44 18 24 1006.7 1006.6 0.0
21/11:37am 29.5 31.0 22.7 67 4.6 S 19 37 10 20 1006.7 1006.6 0.0
21/11:30am 32.5 36.3 24.0 61 5.9 WNW 11 15 6 8 1006.6 1006.5 0.0
21/11:00am 32.4 35.9 22.8 57 6.6 W 9 13 5 7 1006.9 1006.8 0.0
21/10:30am 32.2 34.6 23.7 61 5.9 W 17 22 9 12 1007.0 1006.9 0.0
21/10:00am 31.2 33.5 22.8 61 5.8 WSW 15 20 8 11 1006.9 1006.8 0.0
21/09:30am 31.2 33.7 23.8 64 5.1 W 17 24 9 13 1006.8 1006.7 0.0
21/09:00am 30.5 33.8 23.9 68 4.6 WSW 13 19 7 10 1006.7 1006.6 0.4
21/08:30am 29.5 32.8 23.9 72 3.9 W 13 17 7 9 1006.3 1006.2 0.4
21/08:00am 28.7 32.1 23.4 73 3.6 WSW 11 15 6 8 1006.2 1006.1 0.4
21/07:30am 28.3 31.9 23.0 73 3.6 W 9 17 5 9 1006.1 1006.0 0.4
21/07:00am 27.6 30.9 23.2 77 3.0 WSW 11 15 6 8 1005.9 1005.8 0.4
21/06:30am 27.1 30.0 23.1 79 2.7 WSW 13 17 7 9 1005.7 1005.6 0.4
21/06:00am 26.3 29.6 23.2 83 2.1 SW 11 15 6 8 1005.5 1005.4 0.4
21/05:30am 26.1 29.2 22.8 82 2.2 WSW 11 15 6 8 1005.2 1005.1 0.4
21/05:00am 26.1 27.5 22.6 81 2.4 W 19 22 10 12 1005.0 1004.9 0.4
21/04:36am 28.1 27.6 22.1 70 4.0 W 28 44 15 24 1004.6 1004.5 0.0
21/04:30am 28.5 30.3 22.5 70 4.1 WNW 17 26 9 14 1004.5 1004.4 0.0
21/04:00am 27.1 30.7 23.8 82 2.3 WNW 11 15 6 8 1003.9 1003.8 0.0
21/03:30am 26.9 32.9 24.2 85 1.9 CALM 0 6 0 3 1003.4 1003.3 0.0
21/03:00am 27.3 32.6 24.4 84 2.0 SSW 4 7 2 4 1003.1 1003.0 0.0
21/02:30am 27.1 32.7 24.2 84 2.0 S 2 7 1 4 1002.7 1002.6 0.0
21/02:00am 27.6 33.6 24.2 82 2.4 CALM 0 0 0 0 1003.0 1002.9 0.0
21/01:30am 27.6 33.6 24.2 82 2.4 CALM 0 0 0 0 1003.0 1002.9 0.0
21/01:00am 27.9 32.2 24.3 81 2.5 N 9 13 5 7 1002.9 1002.8 0.0
21/12:30am 27.3 31.6 24.2 83 2.1 N 9 13 5 7 1002.9 1002.8 0.0
21/12:00am 27.4 32.1 24.3 83 2.2 NW 7 9 4 5 1003.2 1003.1 0.0
 
Date/Time
EST
Temp
°C
App
Temp
°C
Dew
Point
°C
Rel
Hum
%
Delta-T
°C
Wind Press
QNH
hPa
Press
MSL
hPa
Rain since
9am
mm
Dir  Spd
km/h
Gust
km/h
Spd
kts
Gust
kts
20/11:30pm 27.5 33.4 24.1 82 2.3 CALM 0 7 0 4 1003.7 1003.6 0.0
20/11:00pm 27.6 33.1 24.0 81 2.5 NNW 2 6 1 3 1004.2 1004.1 0.0
20/10:30pm 27.7 33.0 23.7 79 2.8 NE 2 9 1 5 1004.3 1004.2 0.0
20/10:00pm 28.1 32.4 23.7 77 3.0 E 7 13 4 7 1004.8 1004.7 0.0
20/09:30pm 28.5 31.8 23.9 76 3.2 ESE 13 17 7 9 1004.5 1004.4 0.0
20/09:00pm 28.6 31.0 23.7 75 3.4 SSE 17 22 9 12 1004.6 1004.5 0.0
20/08:30pm 28.7 30.9 24.0 76 3.3 SSW 19 24 10 13 1004.7 1004.6 0.0
20/08:00pm 28.3 31.0 24.1 78 2.9 NE 17 20 9 11 1002.9 1002.8 0.0
20/07:30pm 28.4 30.4 24.0 77 3.0 NE 20 26 11 14 1002.7 1002.6 0.0
20/07:00pm 28.4 30.0 23.8 76 3.2 NE 22 32 12 17 1003.0 1002.9 0.0
20/06:30pm 28.7 30.1 23.6 74 3.5 NNE 22 35 12 19 1003.0 1002.9 0.0
20/06:00pm 28.9 29.8 23.3 72 3.9 NE 24 32 13 17 1002.9 1002.8 0.0
20/05:30pm 29.1 29.1 23.1 70 4.1 NE 28 37 15 20 1002.7 1002.6 0.0
20/05:00pm 30.1 29.9 22.8 65 5.0 NNE 28 35 15 19 1002.4 1002.3 0.0
20/04:30pm 31.0 30.9 22.9 62 5.6 NE 28 35 15 19 1002.3 1002.2 0.0
20/04:00pm 31.4 31.8 22.4 59 6.2 NE 24 32 13 17 1002.5 1002.4 0.0
20/03:30pm 31.5 31.4 22.2 57 6.3 NNE 26 35 14 19 1002.9 1002.8 0.0
20/03:00pm 32.1 31.6 22.2 56 6.8 NE 28 35 15 19 1003.1 1003.0 0.0
20/02:30pm 32.2 32.7 22.6 57 6.6 NE 24 32 13 17 1003.6 1003.5 0.0
20/02:00pm 32.0 33.2 22.1 55 6.8 N 19 28 10 15 1004.0 1003.9 0.0
20/01:30pm 31.9 34.2 22.0 55 6.7 NE 13 26 7 14 1004.7 1004.6 0.0
20/01:00pm 32.5 34.4 22.0 54 7.2 NNE 15 22 8 12 1005.3 1005.2 0.0
20/12:30pm 31.6 33.9 22.0 56 6.5 NNW 13 22 7 12 1006.1 1006.0 0.0
20/12:00pm 30.9 32.7 21.1 56 6.6 WNW 13 19 7 10 1006.8 1006.7 0.0
20/11:30am 30.8 32.8 21.6 58 6.2 N 13 20 7 11 1007.1 1007.0 0.0
20/11:00am 29.7 31.1 21.1 60 5.7 N 15 20 8 11 1007.5 1007.4 0.0
20/10:30am 30.0 31.6 21.4 60 5.8 NNW 15 24 8 13 1008.0 1007.9 0.0
20/10:00am 29.3 31.3 21.5 63 5.2 NNW 13 17 7 9 1008.4 1008.3 0.0
20/09:30am 28.7 31.5 21.5 65 4.8 NE 9 15 5 8 1008.8 1008.7 0.0
20/09:00am 27.5 30.2 20.6 66 4.6 WNW 7 11 4 6 1009.2 1009.1 0.0
20/08:30am 28.0 31.3 20.8 65 4.8 SW 4 9 2 5 1009.4 1009.3 0.0
20/08:00am 26.9 30.2 20.7 69 4.1 W 4 11 2 6 1009.5 1009.4 0.0
20/07:30am 25.6 28.8 20.4 73 3.4 WSW 4 6 2 3 1009.8 1009.7 0.0
20/07:00am 25.2 28.4 20.5 75 3.1 WSW 4 7 2 4 1009.9 1009.8 0.0
20/06:30am 24.8 28.4 19.8 74 3.2 CALM 0 0 0 0 1009.7 1009.6 0.0
20/06:00am 24.8 27.4 20.1 75 3.1 SSE 6 7 3 4 1009.4 1009.3 0.0
20/05:30am 24.7 27.4 20.2 76 2.9 SSE 6 7 3 4 1009.4 1009.3 0.0
20/05:00am 24.6 26.7 20.1 76 2.9 SSE 9 13 5 7 1009.0 1008.9 0.0
20/04:30am 24.6 26.9 19.9 75 3.0 SSE 7 9 4 5 1008.6 1008.5 0.0
20/04:00am 24.6 26.6 19.9 75 3.0 SE 9 13 5 7 1008.4 1008.3 0.0
20/03:30am 24.6 28.1 20.3 77 2.8 WSW 2 6 1 3 1008.6 1008.5 0.0
20/03:00am 24.6 26.6 19.9 75 3.0 ESE 9 13 5 7 1008.6 1008.5 0.0
20/02:30am 24.6 25.3 19.7 74 3.2 SE 15 19 8 10 1008.7 1008.6 0.0
20/02:00am 24.6 26.2 19.9 75 3.0 ENE 11 15 6 8 1009.0 1008.9 0.0
20/01:30am 24.6 26.8 19.7 74 3.2 E 7 9 4 5 1009.2 1009.1 0.0
20/01:00am 24.8 26.6 19.6 73 3.4 SE 9 11 5 6 1009.5 1009.4 0.0
20/12:30am 24.9 26.0 19.7 73 3.4 SE 13 15 7 8 1009.6 1009.5 0.0
20/12:00am 24.9 26.4 19.7 73 3.4 ESE 11 15 6 8 1009.8 1009.7 0.0
 
Date/Time
EST
Temp
°C
App
Temp
°C
Dew
Point
°C
Rel
Hum
%
Delta-T
°C
Wind Press
QNH
hPa
Press
MSL
hPa
Rain since
9am
mm
Dir  Spd
km/h
Gust
km/h
Spd
kts
Gust
kts
19/11:30pm 24.7 25.3 19.5 73 3.3 SE 15 19 8 10 1010.4 1010.3 0.0
19/11:00pm 25.3 26.0 19.7 71 3.6 ESE 15 20 8 11 1010.8 1010.7 0.0
19/10:30pm 25.5 25.1 19.4 69 3.9 ESE 20 26 11 14 1010.9 1010.8 0.0
19/10:00pm 25.5 26.1 19.4 69 3.9 ESE 15 24 8 13 1011.0 1010.9 0.0
19/09:30pm 25.6 26.2 19.5 69 3.9 ESE 15 20 8 11 1011.5 1011.4 0.0
19/09:00pm 25.6 26.2 19.5 69 3.9 ESE 15 20 8 11 1011.4 1011.3 0.0
19/08:30pm 25.6 25.5 19.5 69 3.9 ESE 19 26 10 14 1011.0 1010.9 0.0
19/08:00pm 25.6 25.4 19.3 68 4.1 SE 19 26 10 14 1010.9 1010.8 0.0
19/07:30pm 25.5 25.1 19.4 69 3.9 ESE 20 30 11 16 1010.8 1010.7 0.0
19/07:00pm 25.8 24.4 18.7 65 4.5 ESE 24 35 13 19 1010.2 1010.1 0.0
19/06:30pm 26.2 25.1 18.6 63 4.8 E 22 33 12 18 1010.0 1009.9 0.0
19/06:00pm 26.8 26.5 19.2 63 4.9 ESE 19 28 10 15 1009.5 1009.4 0.0
19/05:30pm 27.3 26.2 19.4 62 5.1 E 24 33 13 18 1009.4 1009.3 0.0
19/05:00pm 27.8 26.8 19.6 61 5.3 ESE 24 33 13 18 1009.0 1008.9 0.0
19/04:30pm 28.3 27.0 19.8 60 5.5 E 26 35 14 19 1008.3 1008.2 0.0
19/04:00pm 29.3 27.4 19.3 55 6.5 ESE 28 37 15 20 1008.5 1008.4 0.0
19/03:30pm 29.7 28.0 19.7 55 6.5 E 28 37 15 20 1008.7 1008.6 0.0
19/03:00pm 29.3 27.6 19.0 53 6.7 ESE 26 35 14 19 1008.8 1008.7 0.0
19/02:30pm 29.3 28.1 19.3 55 6.5 E 24 35 13 19 1009.3 1009.2 0.0
19/02:00pm 29.6 28.4 19.3 54 6.7 ESE 24 33 13 18 1009.8 1009.7 0.0
19/01:30pm 30.0 29.5 20.0 55 6.6 ESE 22 32 12 17 1009.9 1009.8 0.0
19/01:00pm 30.6 30.6 20.2 53 6.9 E 20 28 11 15 1010.0 1009.9 0.0
19/12:30pm 30.1 30.1 20.1 55 6.6 ESE 20 28 11 15 1010.3 1010.2 0.0
19/12:00pm 29.7 30.2 20.8 58 5.9 ESE 19 28 10 15 1010.3 1010.2 0.0
19/11:30am 29.4 30.1 20.5 58 5.9 E 17 24 9 13 1010.6 1010.5 0.0
19/11:00am 29.3 30.5 21.5 63 5.2 ESE 17 22 9 12 1010.7 1010.6 0.0
19/10:30am 28.8 30.5 21.6 65 4.8 E 15 20 8 11 1010.8 1010.7 0.0
19/10:00am 28.4 32.2 21.7 67 4.5 NW 4 15 2 8 1011.0 1010.9 0.0
19/09:30am 28.1 32.6 21.6 68 4.3 CALM 0 6 0 3 1011.0 1010.9 0.0
19/09:00am 28.4 32.1 22.2 69 4.2 SSE 6 9 3 5 1010.9 1010.8 0.0
19/08:30am 28.2 32.5 22.0 69 4.2 ESE 2 9 1 5 1010.9 1010.8 0.0
19/08:00am 27.9 30.2 21.4 67 4.3 SSE 11 15 6 8 1010.8 1010.7 0.0
19/07:30am 27.9 29.8 21.4 67 4.3 S 13 19 7 10 1010.7 1010.6 0.0
19/07:00am 27.5 29.5 21.5 70 4.0 SSW 13 22 7 12 1010.5 1010.4 0.0
19/06:30am 27.1 31.3 23.1 79 2.7 W 6 11 3 6 1010.2 1010.1 0.0
19/06:00am 26.0 30.2 23.1 84 2.0 SW 6 9 3 5 1009.8 1009.7 0.0
19/05:30am 25.4 28.9 22.9 86 1.7 SW 9 13 5 7 1009.4 1009.3 0.0
19/05:00am 26.0 30.5 22.9 83 2.1 SE 4 9 2 5 1009.1 1009.0 0.0
19/04:30am 26.2 29.4 23.1 83 2.1 ENE 11 17 6 9 1008.4 1008.3 0.0
19/04:00am 26.3 29.3 23.4 84 2.0 ENE 13 19 7 10 1008.1 1008.0 0.0
19/03:30am 26.3 29.7 23.4 84 2.0 SE 11 20 6 11 1007.7 1007.6 0.0
19/03:00am 26.0 28.2 23.3 85 1.8 SE 17 24 9 13 1007.5 1007.4 0.0
19/02:30am 25.1 27.1 23.0 88 1.4 SSE 17 24 9 13 1007.1 1007.0 0.0
19/02:00am 25.3 29.1 22.8 86 1.7 S 7 9 4 5 1006.6 1006.5 0.0
19/01:33am 25.2 29.2 22.7 86 1.7 SSW 6 7 3 4 1006.8 1006.7 0.0
19/01:30am 25.2 29.0 22.7 86 1.7 SSW 7 7 4 4 1006.8 1006.7 0.0
19/01:14am 25.4 30.0 22.5 84 2.0 SSW 2 7 1 4 1007.0 1006.9 0.0
19/01:00am 25.6 30.6 22.5 83 2.1 CALM 0 0 0 0 1007.1 1007.0 0.0
19/12:30am 26.1 30.0 23.0 83 2.1 S 7 9 4 5 1007.5 1007.4 0.0
19/12:00am 26.8 31.9 22.6 78 2.8 CALM 0 0 0 0 1007.7 1007.6 0.0
 
Date/Time
EST
Temp
°C
App
Temp
°C
Dew
Point
°C
Rel
Hum
%
Delta-T
°C
Wind Press
QNH
hPa
Press
MSL
hPa
Rain since
9am
mm
Dir  Spd
km/h
Gust
km/h
Spd
kts
Gust
kts
18/11:30pm 26.7 30.7 22.8 79 2.6 ENE 6 7 3 4 1007.9 1007.8 0.0
18/11:00pm 26.7 30.5 22.8 79 2.6 NE 7 11 4 6 1008.2 1008.1 0.0
18/10:30pm 26.8 30.1 22.6 78 2.8 NE 9 13 5 7 1008.5 1008.4 0.0
18/10:00pm 27.0 30.1 22.8 78 2.9 NE 11 13 6 7 1008.5 1008.4 0.0
18/09:30pm 27.2 29.9 22.8 77 3.0 NE 13 17 7 9 1008.4 1008.3 0.0
18/09:00pm 27.7 30.1 22.9 75 3.3 NNE 15 19 8 10 1008.4 1008.3 0.0

Other Formats:

Comma delimited format used in spreadsheet applications
http://www.bom.gov.au/fwo/IDQ60801/IDQ60801.94575.axf

JavaScript Object Notation format (JSON) in row-major order
http://www.bom.gov.au/fwo/IDQ60801/IDQ60801.94575.json